sensor_id;sensor_type;location;lat;lon;timestamp;pressure;altitude;pressure_sealevel;temperature;humidity
11806;BME280;5960;42.602;23.482;2022-09-09T00:01:11;93666.38;;;19.93;61.54
11806;BME280;5960;42.602;23.482;2022-09-09T00:03:48;93672.06;;;19.85;62.14
11806;BME280;5960;42.602;23.482;2022-09-09T00:06:23;93661.94;;;19.87;61.93
11806;BME280;5960;42.602;23.482;2022-09-09T00:09:01;93655.22;;;19.84;62.15
11806;BME280;5960;42.602;23.482;2022-09-09T00:11:36;93652.38;;;19.74;62.39
11806;BME280;5960;42.602;23.482;2022-09-09T00:14:13;93646.53;;;19.77;62.87
11806;BME280;5960;42.602;23.482;2022-09-09T00:16:47;93654.56;;;19.77;62.99
11806;BME280;5960;42.602;23.482;2022-09-09T00:19:22;93649.84;;;19.67;62.95
11806;BME280;5960;42.602;23.482;2022-09-09T00:21:56;93646.78;;;19.59;63.22
11806;BME280;5960;42.602;23.482;2022-09-09T00:24:30;93654.13;;;19.51;63.28
11806;BME280;5960;42.602;23.482;2022-09-09T00:27:06;93654.88;;;19.35;63.72
11806;BME280;5960;42.602;23.482;2022-09-09T00:29:39;93644.63;;;19.44;63.79
11806;BME280;5960;42.602;23.482;2022-09-09T00:32:12;93648.50;;;19.36;63.88
11806;BME280;5960;42.602;23.482;2022-09-09T00:34:46;93652.84;;;19.54;63.33
11806;BME280;5960;42.602;23.482;2022-09-09T00:37:13;93639.47;;;19.54;63.71
11806;BME280;5960;42.602;23.482;2022-09-09T00:39:42;93633.97;;;19.61;63.42
11806;BME280;5960;42.602;23.482;2022-09-09T00:42:14;93628.69;;;19.49;63.88
11806;BME280;5960;42.602;23.482;2022-09-09T00:44:51;93621.06;;;19.40;63.69
11806;BME280;5960;42.602;23.482;2022-09-09T00:47:30;93619.69;;;19.38;63.74
11806;BME280;5960;42.602;23.482;2022-09-09T00:50:20;93613.88;;;19.41;63.97
11806;BME280;5960;42.602;23.482;2022-09-09T00:52:58;93615.34;;;19.49;63.48
11806;BME280;5960;42.602;23.482;2022-09-09T00:55:30;93617.84;;;19.55;62.58
11806;BME280;5960;42.602;23.482;2022-09-09T00:57:59;93612.19;;;19.52;62.82
11806;BME280;5960;42.602;23.482;2022-09-09T01:00:28;93608.47;;;19.53;62.40
11806;BME280;5960;42.602;23.482;2022-09-09T01:03:19;93610.31;;;19.52;62.57
11806;BME280;5960;42.602;23.482;2022-09-09T01:05:59;93612.28;;;19.57;62.61
11806;BME280;5960;42.602;23.482;2022-09-09T01:11:25;93612.84;;;19.76;62.25
11806;BME280;5960;42.602;23.482;2022-09-09T01:13:56;93614.16;;;19.74;62.18
11806;BME280;5960;42.602;23.482;2022-09-09T01:16:27;93610.44;;;19.75;62.11
11806;BME280;5960;42.602;23.482;2022-09-09T01:18:57;93605.50;;;19.83;62.15
11806;BME280;5960;42.602;23.482;2022-09-09T01:21:34;93611.31;;;19.80;62.32
11806;BME280;5960;42.602;23.482;2022-09-09T01:24:15;93621.44;;;19.78;62.56
11806;BME280;5960;42.602;23.482;2022-09-09T01:26:48;93619.88;;;19.65;62.87
11806;BME280;5960;42.602;23.482;2022-09-09T01:29:18;93617.47;;;19.64;63.19
11806;BME280;5960;42.602;23.482;2022-09-09T01:31:53;93609.84;;;19.73;63.01
11806;BME280;5960;42.602;23.482;2022-09-09T01:34:22;93606.50;;;19.48;63.27
11806;BME280;5960;42.602;23.482;2022-09-09T01:36:53;93601.66;;;19.45;64.26
11806;BME280;5960;42.602;23.482;2022-09-09T01:39:23;93603.19;;;19.41;64.14
11806;BME280;5960;42.602;23.482;2022-09-09T01:41:52;93604.72;;;19.37;64.29
11806;BME280;5960;42.602;23.482;2022-09-09T01:44:19;93604.81;;;19.42;63.98
11806;BME280;5960;42.602;23.482;2022-09-09T01:46:46;93610.28;;;19.35;64.52
11806;BME280;5960;42.602;23.482;2022-09-09T01:49:13;93611.00;;;19.31;64.31
11806;BME280;5960;42.602;23.482;2022-09-09T01:51:40;93623.16;;;19.38;63.47
11806;BME280;5960;42.602;23.482;2022-09-09T01:54:08;93621.25;;;19.51;61.95
11806;BME280;5960;42.602;23.482;2022-09-09T01:56:41;93620.38;;;19.62;61.46
11806;BME280;5960;42.602;23.482;2022-09-09T01:59:24;93621.75;;;19.65;61.43
11806;BME280;5960;42.602;23.482;2022-09-09T02:02:04;93632.09;;;19.61;61.56
11806;BME280;5960;42.602;23.482;2022-09-09T02:04:38;93633.88;;;19.55;62.43
11806;BME280;5960;42.602;23.482;2022-09-09T02:07:14;93628.44;;;19.33;62.91
11806;BME280;5960;42.602;23.482;2022-09-09T02:09:51;93635.63;;;19.33;62.75
11806;BME280;5960;42.602;23.482;2022-09-09T02:12:20;93627.69;;;19.38;62.59
11806;BME280;5960;42.602;23.482;2022-09-09T02:14:56;93635.25;;;19.41;62.53
11806;BME280;5960;42.602;23.482;2022-09-09T02:17:28;93636.75;;;19.37;62.57
11806;BME280;5960;42.602;23.482;2022-09-09T02:20:00;93625.34;;;19.42;62.99
11806;BME280;5960;42.602;23.482;2022-09-09T02:22:29;93630.47;;;19.43;63.21
11806;BME280;5960;42.602;23.482;2022-09-09T02:25:00;93617.00;;;19.38;63.43
11806;BME280;5960;42.602;23.482;2022-09-09T02:27:27;93622.00;;;19.34;63.64
11806;BME280;5960;42.602;23.482;2022-09-09T02:29:56;93616.66;;;19.34;63.23
11806;BME280;5960;42.602;23.482;2022-09-09T02:32:25;93610.28;;;19.35;63.30
11806;BME280;5960;42.602;23.482;2022-09-09T02:34:57;93607.28;;;19.32;63.53
11806;BME280;5960;42.602;23.482;2022-09-09T02:37:29;93605.13;;;19.17;63.28
11806;BME280;5960;42.602;23.482;2022-09-09T02:40:01;93611.31;;;19.17;63.37
11806;BME280;5960;42.602;23.482;2022-09-09T02:42:28;93613.41;;;19.15;63.17
11806;BME280;5960;42.602;23.482;2022-09-09T02:44:56;93612.72;;;19.08;63.28
11806;BME280;5960;42.602;23.482;2022-09-09T02:47:27;93628.41;;;19.04;63.46
11806;BME280;5960;42.602;23.482;2022-09-09T02:50:05;93615.53;;;19.01;63.63
11806;BME280;5960;42.602;23.482;2022-09-09T02:52:42;93617.47;;;19.06;63.36
11806;BME280;5960;42.602;23.482;2022-09-09T02:55:17;93630.19;;;18.99;63.28
11806;BME280;5960;42.602;23.482;2022-09-09T02:57:47;93633.50;;;18.94;63.45
11806;BME280;5960;42.602;23.482;2022-09-09T03:00:22;93634.81;;;18.91;63.34
11806;BME280;5960;42.602;23.482;2022-09-09T03:02:49;93623.44;;;18.96;62.77
11806;BME280;5960;42.602;23.482;2022-09-09T03:05:16;93624.47;;;18.95;63.21
11806;BME280;5960;42.602;23.482;2022-09-09T03:07:43;93614.16;;;18.99;63.20
11806;BME280;5960;42.602;23.482;2022-09-09T03:10:10;93606.22;;;18.92;63.62
11806;BME280;5960;42.602;23.482;2022-09-09T03:12:36;93617.75;;;18.92;63.38
11806;BME280;5960;42.602;23.482;2022-09-09T03:15:04;93608.81;;;18.87;63.90
11806;BME280;5960;42.602;23.482;2022-09-09T03:17:33;93622.03;;;18.93;63.76
11806;BME280;5960;42.602;23.482;2022-09-09T03:20:00;93623.66;;;18.94;63.45
11806;BME280;5960;42.602;23.482;2022-09-09T03:22:27;93630.50;;;18.90;62.86
11806;BME280;5960;42.602;23.482;2022-09-09T03:24:53;93631.81;;;18.88;64.27
11806;BME280;5960;42.602;23.482;2022-09-09T03:27:20;93633.91;;;18.86;65.25
11806;BME280;5960;42.602;23.482;2022-09-09T03:29:47;93632.03;;;18.86;65.81
11806;BME280;5960;42.602;23.482;2022-09-09T03:32:16;93632.59;;;18.88;65.71
11806;BME280;5960;42.602;23.482;2022-09-09T03:34:45;93642.22;;;18.89;64.41
11806;BME280;5960;42.602;23.482;2022-09-09T03:37:12;93634.13;;;18.72;63.85
11806;BME280;5960;42.602;23.482;2022-09-09T03:39:39;93621.50;;;18.68;63.80
11806;BME280;5960;42.602;23.482;2022-09-09T03:42:06;93625.94;;;18.62;63.60
11806;BME280;5960;42.602;23.482;2022-09-09T03:44:33;93626.63;;;18.57;63.79
11806;BME280;5960;42.602;23.482;2022-09-09T03:46:59;93623.03;;;18.63;63.37
11806;BME280;5960;42.602;23.482;2022-09-09T03:49:26;93626.97;;;18.73;63.30
11806;BME280;5960;42.602;23.482;2022-09-09T03:51:55;93636.00;;;18.72;64.45
11806;BME280;5960;42.602;23.482;2022-09-09T03:54:22;93630.31;;;18.68;65.87
11806;BME280;5960;42.602;23.482;2022-09-09T03:56:49;93639.97;;;18.57;64.50
11806;BME280;5960;42.602;23.482;2022-09-09T03:59:16;93635.34;;;18.53;66.32
11806;BME280;5960;42.602;23.482;2022-09-09T04:01:42;93635.59;;;18.39;67.53
11806;BME280;5960;42.602;23.482;2022-09-09T04:04:10;93628.97;;;18.42;67.90
11806;BME280;5960;42.602;23.482;2022-09-09T04:06:37;93629.53;;;18.44;67.99
11806;BME280;5960;42.602;23.482;2022-09-09T04:09:05;93633.59;;;18.46;67.99
11806;BME280;5960;42.602;23.482;2022-09-09T04:11:32;93638.84;;;18.41;68.54
11806;BME280;5960;42.602;23.482;2022-09-09T04:13:59;93654.34;;;18.44;68.82
11806;BME280;5960;42.602;23.482;2022-09-09T04:16:26;93653.56;;;18.44;68.80
11806;BME280;5960;42.602;23.482;2022-09-09T04:18:52;93652.06;;;18.48;68.55
11806;BME280;5960;42.602;23.482;2022-09-09T04:21:19;93651.91;;;18.55;68.40
11806;BME280;5960;42.602;23.482;2022-09-09T04:23:46;93646.56;;;18.67;68.26
11806;BME280;5960;42.602;23.482;2022-09-09T04:26:14;93646.00;;;18.64;68.29
11806;BME280;5960;42.602;23.482;2022-09-09T04:28:41;93646.69;;;18.60;68.25
11806;BME280;5960;42.602;23.482;2022-09-09T04:31:10;93642.75;;;18.50;68.18
11806;BME280;5960;42.602;23.482;2022-09-09T04:33:37;93648.44;;;18.54;68.72
11806;BME280;5960;42.602;23.482;2022-09-09T04:36:04;93651.31;;;18.64;68.15
11806;BME280;5960;42.602;23.482;2022-09-09T04:38:30;93645.97;;;18.76;67.62
11806;BME280;5960;42.602;23.482;2022-09-09T04:40:57;93648.19;;;18.79;67.40
11806;BME280;5960;42.602;23.482;2022-09-09T04:43:25;93642.25;;;18.77;67.91
11806;BME280;5960;42.602;23.482;2022-09-09T04:45:53;93640.72;;;18.93;67.79
11806;BME280;5960;42.602;23.482;2022-09-09T04:48:21;93646.75;;;19.01;67.32
11806;BME280;5960;42.602;23.482;2022-09-09T04:50:54;93644.31;;;18.99;67.00
11806;BME280;5960;42.602;23.482;2022-09-09T04:53:21;93642.66;;;19.10;66.98
11806;BME280;5960;42.602;23.482;2022-09-09T04:55:48;93640.25;;;19.08;66.98
11806;BME280;5960;42.602;23.482;2022-09-09T04:58:15;93635.69;;;19.09;66.94
11806;BME280;5960;42.602;23.482;2022-09-09T05:00:43;93630.38;;;19.09;66.89
11806;BME280;5960;42.602;23.482;2022-09-09T05:03:10;93628.84;;;19.13;66.88
11806;BME280;5960;42.602;23.482;2022-09-09T05:05:38;93627.53;;;19.16;67.16
11806;BME280;5960;42.602;23.482;2022-09-09T05:08:06;93619.00;;;19.31;66.71
11806;BME280;5960;42.602;23.482;2022-09-09T05:10:34;93619.78;;;19.43;66.60
11806;BME280;5960;42.602;23.482;2022-09-09T05:13:01;93610.31;;;19.52;65.45
11806;BME280;5960;42.602;23.482;2022-09-09T05:15:27;93603.25;;;19.46;65.88
11806;BME280;5960;42.602;23.482;2022-09-09T05:17:58;93607.47;;;19.59;65.99
11806;BME280;5960;42.602;23.482;2022-09-09T05:20:25;93612.53;;;19.73;65.74
11806;BME280;5960;42.602;23.482;2022-09-09T05:22:52;93617.53;;;19.86;64.52
11806;BME280;5960;42.602;23.482;2022-09-09T05:25:19;93616.63;;;19.92;64.22
11806;BME280;5960;42.602;23.482;2022-09-09T05:27:47;93605.56;;;20.06;64.22
11806;BME280;5960;42.602;23.482;2022-09-09T05:30:14;93594.31;;;20.21;62.62
11806;BME280;5960;42.602;23.482;2022-09-09T05:32:42;93599.25;;;20.51;61.30
11806;BME280;5960;42.602;23.482;2022-09-09T05:35:10;93596.94;;;20.55;61.52
11806;BME280;5960;42.602;23.482;2022-09-09T05:37:36;93596.31;;;20.70;61.66
11806;BME280;5960;42.602;23.482;2022-09-09T05:40:03;93594.41;;;20.87;61.39
11806;BME280;5960;42.602;23.482;2022-09-09T05:42:30;93587.94;;;21.06;61.02
11806;BME280;5960;42.602;23.482;2022-09-09T05:44:58;93598.31;;;21.24;60.93
11806;BME280;5960;42.602;23.482;2022-09-09T05:47:24;93596.06;;;21.43;60.20
11806;BME280;5960;42.602;23.482;2022-09-09T05:49:53;93597.41;;;21.68;60.35
11806;BME280;5960;42.602;23.482;2022-09-09T05:52:22;93604.69;;;21.73;60.41
11806;BME280;5960;42.602;23.482;2022-09-09T05:54:49;93622.19;;;21.81;60.06
11806;BME280;5960;42.602;23.482;2022-09-09T05:57:15;93628.44;;;21.91;59.46
11806;BME280;5960;42.602;23.482;2022-09-09T05:59:42;93632.25;;;22.01;58.83
11806;BME280;5960;42.602;23.482;2022-09-09T06:02:09;93627.28;;;22.15;58.26
11806;BME280;5960;42.602;23.482;2022-09-09T06:04:35;93625.47;;;22.20;58.19
11806;BME280;5960;42.602;23.482;2022-09-09T06:07:02;93620.19;;;22.36;57.30
11806;BME280;5960;42.602;23.482;2022-09-09T06:09:30;93624.50;;;22.37;58.06
11806;BME280;5960;42.602;23.482;2022-09-09T06:11:57;93633.19;;;22.49;56.66
11806;BME280;5960;42.602;23.482;2022-09-09T06:14:24;93638.06;;;22.58;56.72
11806;BME280;5960;42.602;23.482;2022-09-09T06:16:52;93634.69;;;22.73;56.67
11806;BME280;5960;42.602;23.482;2022-09-09T06:19:19;93638.75;;;22.80;56.54
11806;BME280;5960;42.602;23.482;2022-09-09T06:21:46;93644.97;;;22.91;56.34
11806;BME280;5960;42.602;23.482;2022-09-09T06:24:13;93646.94;;;23.06;56.04
11806;BME280;5960;42.602;23.482;2022-09-09T06:26:44;93636.44;;;23.10;55.15
11806;BME280;5960;42.602;23.482;2022-09-09T06:29:11;93637.28;;;23.15;55.71
11806;BME280;5960;42.602;23.482;2022-09-09T06:31:38;93644.56;;;23.20;54.68
11806;BME280;5960;42.602;23.482;2022-09-09T06:34:06;93644.38;;;23.32;54.45
11806;BME280;5960;42.602;23.482;2022-09-09T06:36:34;93648.13;;;23.41;54.21
11806;BME280;5960;42.602;23.482;2022-09-09T06:39:02;93639.31;;;23.56;53.75
11806;BME280;5960;42.602;23.482;2022-09-09T06:41:31;93640.16;;;23.72;53.01
11806;BME280;5960;42.602;23.482;2022-09-09T06:43:59;93645.53;;;23.88;52.53
11806;BME280;5960;42.602;23.482;2022-09-09T06:46:27;93632.69;;;24.00;52.58
11806;BME280;5960;42.602;23.482;2022-09-09T06:48:56;93637.81;;;24.17;52.08
11806;BME280;5960;42.602;23.482;2022-09-09T06:51:27;93638.59;;;24.39;52.73
11806;BME280;5960;42.602;23.482;2022-09-09T06:53:56;93639.66;;;24.48;51.77
11806;BME280;5960;42.602;23.482;2022-09-09T06:56:24;93636.66;;;24.65;51.51
11806;BME280;5960;42.602;23.482;2022-09-09T06:58:54;93641.25;;;24.64;51.03
11806;BME280;5960;42.602;23.482;2022-09-09T07:01:24;93648.78;;;24.78;50.63
11806;BME280;5960;42.602;23.482;2022-09-09T07:03:53;93652.53;;;24.92;50.61
11806;BME280;5960;42.602;23.482;2022-09-09T07:06:22;93659.47;;;25.14;50.48
11806;BME280;5960;42.602;23.482;2022-09-09T07:08:50;93654.22;;;25.38;48.80
11806;BME280;5960;42.602;23.482;2022-09-09T07:11:19;93648.00;;;25.53;48.56
11806;BME280;5960;42.602;23.482;2022-09-09T07:13:47;93653.88;;;25.66;47.85
11806;BME280;5960;42.602;23.482;2022-09-09T07:16:15;93662.47;;;25.68;48.06
11806;BME280;5960;42.602;23.482;2022-09-09T07:18:44;93659.22;;;25.71;47.05
11806;BME280;5960;42.602;23.482;2022-09-09T07:21:12;93648.81;;;25.54;47.11
11806;BME280;5960;42.602;23.482;2022-09-09T07:23:40;93649.63;;;25.49;48.03
11806;BME280;5960;42.602;23.482;2022-09-09T07:26:08;93647.19;;;25.53;47.81
11806;BME280;5960;42.602;23.482;2022-09-09T07:28:36;93646.88;;;25.65;47.92
11806;BME280;5960;42.602;23.482;2022-09-09T07:31:03;93642.69;;;25.83;47.63
11806;BME280;5960;42.602;23.482;2022-09-09T07:33:32;93646.59;;;26.06;46.72
11806;BME280;5960;42.602;23.482;2022-09-09T07:36:04;93643.19;;;26.30;46.55
11806;BME280;5960;42.602;23.482;2022-09-09T07:38:32;93637.94;;;26.44;46.09
11806;BME280;5960;42.602;23.482;2022-09-09T07:41:04;93634.78;;;26.61;46.17
11806;BME280;5960;42.602;23.482;2022-09-09T07:43:32;93638.50;;;26.70;46.92
11806;BME280;5960;42.602;23.482;2022-09-09T07:45:59;93628.63;;;26.85;45.01
11806;BME280;5960;42.602;23.482;2022-09-09T07:48:26;93629.59;;;26.40;45.70
11806;BME280;5960;42.602;23.482;2022-09-09T07:51:05;93635.66;;;26.27;46.35
11806;BME280;5960;42.602;23.482;2022-09-09T07:53:32;93645.22;;;26.43;46.87
11806;BME280;5960;42.602;23.482;2022-09-09T07:56:03;93649.00;;;26.72;45.26
11806;BME280;5960;42.602;23.482;2022-09-09T07:58:30;93644.66;;;27.06;44.77
11806;BME280;5960;42.602;23.482;2022-09-09T08:00:57;93653.47;;;27.36;44.26
11806;BME280;5960;42.602;23.482;2022-09-09T08:03:24;93650.94;;;27.69;43.16
11806;BME280;5960;42.602;23.482;2022-09-09T08:05:50;93646.25;;;27.93;42.76
11806;BME280;5960;42.602;23.482;2022-09-09T08:08:18;93643.25;;;28.14;43.25
11806;BME280;5960;42.602;23.482;2022-09-09T08:10:45;93644.97;;;28.43;42.58
11806;BME280;5960;42.602;23.482;2022-09-09T08:13:12;93645.13;;;28.66;41.14
11806;BME280;5960;42.602;23.482;2022-09-09T08:15:39;93652.53;;;28.60;41.54
11806;BME280;5960;42.602;23.482;2022-09-09T08:18:07;93641.75;;;28.88;39.99
11806;BME280;5960;42.602;23.482;2022-09-09T08:20:36;93639.19;;;28.64;40.72
11806;BME280;5960;42.602;23.482;2022-09-09T08:23:03;93638.94;;;28.79;41.07
11806;BME280;5960;42.602;23.482;2022-09-09T08:25:31;93644.91;;;29.23;41.15
11806;BME280;5960;42.602;23.482;2022-09-09T08:28:00;93632.47;;;29.73;40.72
11806;BME280;5960;42.602;23.482;2022-09-09T08:30:27;93628.16;;;30.09;39.82
11806;BME280;5960;42.602;23.482;2022-09-09T08:32:53;93634.09;;;30.11;39.67
11806;BME280;5960;42.602;23.482;2022-09-09T08:35:20;93635.47;;;29.85;39.07
11806;BME280;5960;42.602;23.482;2022-09-09T08:37:47;93631.84;;;29.90;39.42
11806;BME280;5960;42.602;23.482;2022-09-09T08:40:19;93634.31;;;29.64;39.72
11806;BME280;5960;42.602;23.482;2022-09-09T08:42:51;93634.50;;;29.67;40.22
11806;BME280;5960;42.602;23.482;2022-09-09T08:45:24;93635.13;;;29.64;39.37
11806;BME280;5960;42.602;23.482;2022-09-09T08:48:21;93635.66;;;29.24;39.39
11806;BME280;5960;42.602;23.482;2022-09-09T08:50:50;93634.13;;;28.90;40.66
11806;BME280;5960;42.602;23.482;2022-09-09T08:53:21;93642.06;;;28.87;41.13
11806;BME280;5960;42.602;23.482;2022-09-09T08:55:51;93639.25;;;29.20;40.96
11806;BME280;5960;42.602;23.482;2022-09-09T08:58:23;93631.22;;;29.56;39.67
11806;BME280;5960;42.602;23.482;2022-09-09T09:01:02;93636.81;;;29.74;39.42
11806;BME280;5960;42.602;23.482;2022-09-09T09:03:40;93626.75;;;29.75;39.21
11806;BME280;5960;42.602;23.482;2022-09-09T09:06:23;93630.50;;;29.65;39.88
11806;BME280;5960;42.602;23.482;2022-09-09T09:08:58;93628.06;;;29.63;40.03
11806;BME280;5960;42.602;23.482;2022-09-09T09:11:26;93626.19;;;29.64;40.38
11806;BME280;5960;42.602;23.482;2022-09-09T09:13:57;93623.75;;;29.62;39.67
11806;BME280;5960;42.602;23.482;2022-09-09T09:16:30;93623.75;;;29.62;39.92
11806;BME280;5960;42.602;23.482;2022-09-09T09:18:59;93636.44;;;29.67;39.49
11806;BME280;5960;42.602;23.482;2022-09-09T09:21:34;93635.63;;;29.66;39.58
11806;BME280;5960;42.602;23.482;2022-09-09T09:24:10;93628.91;;;29.22;40.31
11806;BME280;5960;42.602;23.482;2022-09-09T09:26:42;93632.31;;;29.27;41.96
11806;BME280;5960;42.602;23.482;2022-09-09T09:29:12;93620.66;;;29.27;42.38
11806;BME280;5960;42.602;23.482;2022-09-09T09:31:43;93622.28;;;29.42;41.64
11806;BME280;5960;42.602;23.482;2022-09-09T09:34:13;93610.81;;;29.59;40.50
11806;BME280;5960;42.602;23.482;2022-09-09T09:36:41;93622.13;;;29.75;40.35
11806;BME280;5960;42.602;23.482;2022-09-09T09:39:10;93633.06;;;29.84;40.62
11806;BME280;5960;42.602;23.482;2022-09-09T09:41:38;93628.97;;;29.72;41.21
11806;BME280;5960;42.602;23.482;2022-09-09T09:44:23;93613.59;;;29.68;41.29
11806;BME280;5960;42.602;23.482;2022-09-09T09:46:51;93619.81;;;29.68;41.25
11806;BME280;5960;42.602;23.482;2022-09-09T09:49:18;93624.63;;;29.85;41.36
11806;BME280;5960;42.602;23.482;2022-09-09T09:51:45;93620.16;;;30.04;40.67
11806;BME280;5960;42.602;23.482;2022-09-09T09:54:21;93614.25;;;30.24;40.11
11806;BME280;5960;42.602;23.482;2022-09-09T09:56:49;93611.25;;;30.12;39.65
11806;BME280;5960;42.602;23.482;2022-09-09T09:59:21;93608.91;;;29.96;40.91
11806;BME280;5960;42.602;23.482;2022-09-09T10:01:49;93607.47;;;30.44;40.34
11806;BME280;5960;42.602;23.482;2022-09-09T10:04:18;93605.72;;;31.12;40.18
11806;BME280;5960;42.602;23.482;2022-09-09T10:06:46;93603.03;;;31.87;38.43
11806;BME280;5960;42.602;23.482;2022-09-09T10:09:23;93605.53;;;32.71;35.98
11806;BME280;5960;42.602;23.482;2022-09-09T10:11:57;93604.47;;;32.37;34.87
11806;BME280;5960;42.602;23.482;2022-09-09T10:14:33;93611.41;;;32.08;35.76
11806;BME280;5960;42.602;23.482;2022-09-09T10:17:15;93608.66;;;32.00;35.76
11806;BME280;5960;42.602;23.482;2022-09-09T10:19:56;93597.59;;;32.31;36.04
11806;BME280;5960;42.602;23.482;2022-09-09T10:22:27;93601.75;;;32.29;35.60
11806;BME280;5960;42.602;23.482;2022-09-09T10:25:04;93608.97;;;31.80;36.38
11806;BME280;5960;42.602;23.482;2022-09-09T10:27:40;93615.53;;;31.79;38.02
11806;BME280;5960;42.602;23.482;2022-09-09T10:30:15;93616.03;;;31.81;37.62
11806;BME280;5960;42.602;23.482;2022-09-09T10:32:55;93621.78;;;31.71;37.70
11806;BME280;5960;42.602;23.482;2022-09-09T10:35:33;93613.72;;;31.57;37.73
11806;BME280;5960;42.602;23.482;2022-09-09T10:38:16;93618.44;;;31.16;38.28
11806;BME280;5960;42.602;23.482;2022-09-09T10:41:00;93613.84;;;30.94;37.94
11806;BME280;5960;42.602;23.482;2022-09-09T10:43:44;93615.66;;;30.76;39.59
11806;BME280;5960;42.602;23.482;2022-09-09T10:46:16;93612.88;;;30.58;39.38
11806;BME280;5960;42.602;23.482;2022-09-09T10:48:58;93612.81;;;30.27;39.69
11806;BME280;5960;42.602;23.482;2022-09-09T10:51:36;93617.66;;;29.93;40.65
11806;BME280;5960;42.602;23.482;2022-09-09T10:54:19;93625.25;;;29.68;40.82
11806;BME280;5960;42.602;23.482;2022-09-09T10:56:54;93624.28;;;29.50;40.69
11806;BME280;5960;42.602;23.482;2022-09-09T10:59:24;93624.31;;;29.22;41.88
11806;BME280;5960;42.602;23.482;2022-09-09T11:01:54;93618.66;;;29.19;42.19
11806;BME280;5960;42.602;23.482;2022-09-09T11:04:27;93617.88;;;29.04;41.40
11806;BME280;5960;42.602;23.482;2022-09-09T11:06:56;93614.22;;;28.95;41.94
11806;BME280;5960;42.602;23.482;2022-09-09T11:09:25;93616.06;;;28.86;41.48
11806;BME280;5960;42.602;23.482;2022-09-09T11:11:54;93612.97;;;28.73;41.99
11806;BME280;5960;42.602;23.482;2022-09-09T11:14:28;93634.13;;;28.57;42.09
11806;BME280;5960;42.602;23.482;2022-09-09T11:16:58;93628.78;;;28.38;42.80
11806;BME280;5960;42.602;23.482;2022-09-09T11:19:31;93631.56;;;28.33;43.04
11806;BME280;5960;42.602;23.482;2022-09-09T11:22:02;93627.72;;;28.20;43.02
11806;BME280;5960;42.602;23.482;2022-09-09T11:24:35;93628.16;;;28.08;42.83
11806;BME280;5960;42.602;23.482;2022-09-09T11:27:10;93624.00;;;27.97;42.96
11806;BME280;5960;42.602;23.482;2022-09-09T11:30:10;93617.19;;;27.80;43.35
11806;BME280;5960;42.602;23.482;2022-09-09T11:32:57;93618.56;;;27.58;43.98
11806;BME280;5960;42.602;23.482;2022-09-09T11:35:35;93610.84;;;27.71;44.31
11806;BME280;5960;42.602;23.482;2022-09-09T11:38:25;93614.91;;;27.68;43.82
11806;BME280;5960;42.602;23.482;2022-09-09T11:40:57;93600.59;;;27.68;43.91
11806;BME280;5960;42.602;23.482;2022-09-09T11:43:29;93588.75;;;27.63;44.99
11806;BME280;5960;42.602;23.482;2022-09-09T11:45:58;93581.84;;;27.52;43.92
11806;BME280;5960;42.602;23.482;2022-09-09T11:48:32;93582.47;;;27.49;43.34
11806;BME280;5960;42.602;23.482;2022-09-09T11:51:04;93585.69;;;27.51;43.96
11806;BME280;5960;42.602;23.482;2022-09-09T11:53:33;93589.63;;;27.59;43.58
11806;BME280;5960;42.602;23.482;2022-09-09T11:56:06;93570.00;;;27.67;43.64
11806;BME280;5960;42.602;23.482;2022-09-09T11:58:38;93578.34;;;27.71;45.07
11806;BME280;5960;42.602;23.482;2022-09-09T12:01:16;93563.34;;;27.78;44.99
11806;BME280;5960;42.602;23.482;2022-09-09T12:04:01;93555.59;;;27.72;44.28
11806;BME280;5960;42.602;23.482;2022-09-09T12:06:41;93536.59;;;27.58;44.93
11806;BME280;5960;42.602;23.482;2022-09-09T12:09:20;93538.28;;;27.54;45.43
11806;BME280;5960;42.602;23.482;2022-09-09T12:11:49;93537.19;;;27.55;44.12
11806;BME280;5960;42.602;23.482;2022-09-09T12:14:21;93541.47;;;27.37;45.60
11806;BME280;5960;42.602;23.482;2022-09-09T12:16:48;93542.56;;;27.36;45.48
11806;BME280;5960;42.602;23.482;2022-09-09T12:19:19;93544.53;;;27.30;46.15
11806;BME280;5960;42.602;23.482;2022-09-09T12:21:57;93533.00;;;27.24;46.22
11806;BME280;5960;42.602;23.482;2022-09-09T12:24:30;93532.84;;;27.15;46.31
11806;BME280;5960;42.602;23.482;2022-09-09T12:27:06;93533.84;;;27.19;45.87
11806;BME280;5960;42.602;23.482;2022-09-09T12:29:44;93527.13;;;27.17;46.47
11806;BME280;5960;42.602;23.482;2022-09-09T12:32:16;93525.22;;;27.17;46.83
11806;BME280;5960;42.602;23.482;2022-09-09T12:34:46;93533.94;;;27.14;47.18
11806;BME280;5960;42.602;23.482;2022-09-09T12:37:21;93522.28;;;27.14;48.31
11806;BME280;5960;42.602;23.482;2022-09-09T12:39:53;93515.66;;;27.25;47.92
11806;BME280;5960;42.602;23.482;2022-09-09T12:42:22;93520.13;;;27.35;47.66
11806;BME280;5960;42.602;23.482;2022-09-09T12:44:54;93521.84;;;27.50;47.34
11806;BME280;5960;42.602;23.482;2022-09-09T12:47:25;93525.78;;;27.58;46.91
11806;BME280;5960;42.602;23.482;2022-09-09T12:49:54;93523.84;;;27.58;46.99
11806;BME280;5960;42.602;23.482;2022-09-09T12:52:27;93520.06;;;27.59;46.43
11806;BME280;5960;42.602;23.482;2022-09-09T12:54:57;93513.53;;;27.60;44.67
11806;BME280;5960;42.602;23.482;2022-09-09T12:57:25;93511.50;;;27.52;44.95
11806;BME280;5960;42.602;23.482;2022-09-09T13:00:07;93505.72;;;27.59;46.59
11806;BME280;5960;42.602;23.482;2022-09-09T13:02:45;93503.16;;;27.68;46.50
11806;BME280;5960;42.602;23.482;2022-09-09T13:05:17;93504.56;;;27.79;46.60
11806;BME280;5960;42.602;23.482;2022-09-09T13:07:45;93508.75;;;27.90;44.50
11806;BME280;5960;42.602;23.482;2022-09-09T13:10:14;93499.28;;;27.88;44.70
11806;BME280;5960;42.602;23.482;2022-09-09T13:12:41;93485.59;;;27.98;44.34
11806;BME280;5960;42.602;23.482;2022-09-09T13:15:18;93480.88;;;28.04;45.40
11806;BME280;5960;42.602;23.482;2022-09-09T13:17:51;93484.56;;;27.94;45.47
11806;BME280;5960;42.602;23.482;2022-09-09T13:20:19;93482.56;;;28.00;46.20
11806;BME280;5960;42.602;23.482;2022-09-09T13:22:49;93474.88;;;28.07;46.91